Terminal Aerodrome Forecast
Issued by NWS

Home | Current Version | Previous Version | Text Only | Print | Product List | Glossary On
Versions: 1 2 3 4 5 6 7 8 9 10 11 12 13 14 15 16 17 18 19 20 21 22 23 24 25 26 27
722
FTUS41 KOKX 291444 AAA
TAFSWF
TAF AMD
KSWF 291444Z 2915/3018 26012G20KT P6SM SCT040 BKN200
     FM291600 29012G19KT P6SM BKN200
     FM292100 32011KT P6SM BKN150
     FM300200 VRB04KT P6SM FEW250
     FM301000 04009KT P6SM SKC
     FM301400 VRB05KT P6SM FEW250
      AMD NOT SKED=

USA.gov is the U.S. government's official web portal to all federal, state and local government web resources and services.